createdAt,value
2019-03-06T00:00:57.709Z,1006.24
2019-03-06T00:01:58.078Z,1006.27
2019-03-06T00:02:57.766Z,1006.33
2019-03-06T00:03:57.794Z,1006.35
2019-03-06T00:04:57.823Z,1006.35
2019-03-06T00:05:57.856Z,1006.33
2019-03-06T00:06:57.880Z,1006.39
2019-03-06T00:07:57.907Z,1006.38
2019-03-06T00:08:57.937Z,1006.36
2019-03-06T00:09:57.965Z,1006.36
2019-03-06T00:10:57.992Z,1006.32
2019-03-06T00:11:58.019Z,1006.30
2019-03-06T00:12:58.049Z,1006.30
2019-03-06T00:13:58.077Z,1006.33
2019-03-06T00:14:58.106Z,1006.29
2019-03-06T00:15:58.133Z,1006.35
2019-03-06T00:16:58.162Z,1006.31
2019-03-06T00:17:58.189Z,1006.32
2019-03-06T00:18:58.218Z,1006.32
2019-03-06T00:19:58.245Z,1006.35
2019-03-06T00:20:58.274Z,1006.31
2019-03-06T00:21:58.302Z,1006.33
2019-03-06T00:22:58.329Z,1006.34
2019-03-06T00:23:58.357Z,1006.34
2019-03-06T00:24:58.386Z,1006.34
2019-03-06T00:25:58.413Z,1006.33
2019-03-06T00:26:58.442Z,1006.33
2019-03-06T00:27:58.471Z,1006.34
2019-03-06T00:28:58.499Z,1006.34
2019-03-06T00:29:58.527Z,1006.30
2019-03-06T00:30:58.558Z,1006.33
2019-03-06T00:31:58.585Z,1006.32
2019-03-06T00:32:58.611Z,1006.33
2019-03-06T00:33:58.641Z,1006.35
2019-03-06T00:34:58.668Z,1006.36
2019-03-06T00:35:58.695Z,1006.36
2019-03-06T00:36:58.728Z,1006.35
2019-03-06T00:37:58.753Z,1006.38
2019-03-06T00:38:58.782Z,1006.37
2019-03-06T00:39:58.809Z,1006.38
2019-03-06T00:40:58.838Z,1006.39
2019-03-06T00:41:58.865Z,1006.37
2019-03-06T00:42:58.902Z,1006.38
2019-03-06T00:43:58.925Z,1006.37
2019-03-06T00:44:58.948Z,1006.44
2019-03-06T00:45:58.980Z,1006.44
2019-03-06T00:46:59.006Z,1006.49
2019-03-06T00:47:59.034Z,1006.51
2019-03-06T00:48:59.064Z,1006.52
2019-03-06T00:49:59.091Z,1006.51
2019-03-06T00:50:59.121Z,1006.52
2019-03-06T00:51:59.148Z,1006.48
2019-03-06T00:52:59.177Z,1006.44
2019-03-06T00:53:59.205Z,1006.46
2019-03-06T00:54:59.236Z,1006.46
2019-03-06T00:55:59.260Z,1006.48
2019-03-06T00:56:59.288Z,1006.43
2019-03-06T00:57:59.318Z,1006.44
2019-03-06T00:58:59.347Z,1006.44
2019-03-06T00:59:59.373Z,1006.48
2019-03-06T01:00:59.400Z,1006.45
2019-03-06T01:01:59.432Z,1006.48
2019-03-06T01:02:59.459Z,1006.52
2019-03-06T01:03:59.484Z,1006.50
2019-03-06T01:04:59.513Z,1006.53
2019-03-06T01:05:59.542Z,1006.53
2019-03-06T01:06:59.571Z,1006.52
2019-03-06T01:07:59.598Z,1006.51
2019-03-06T01:08:59.647Z,1006.49
2019-03-06T01:09:59.654Z,1006.48
2019-03-06T01:10:59.686Z,1006.50
2019-03-06T01:11:59.711Z,1006.51
2019-03-06T01:12:59.763Z,1006.46
2019-03-06T01:13:59.768Z,1006.47
2019-03-06T01:14:59.804Z,1006.48
2019-03-06T01:15:59.824Z,1006.49
2019-03-06T01:16:59.864Z,1006.51
2019-03-06T01:17:59.881Z,1006.54
2019-03-06T01:18:59.910Z,1006.53
2019-03-06T01:19:59.956Z,1006.50
2019-03-06T01:20:59.965Z,1006.56
2019-03-06T01:21:59.997Z,1006.59
2019-03-06T01:23:00.034Z,1006.59
2019-03-06T01:24:00.052Z,1006.63
2019-03-06T01:25:00.301Z,1006.60
2019-03-06T01:26:00.109Z,1006.56
2019-03-06T01:27:00.137Z,1006.59
2019-03-06T01:28:00.164Z,1006.55
2019-03-06T01:29:00.193Z,1006.59
2019-03-06T01:30:00.362Z,1006.64
2019-03-06T01:31:00.251Z,1006.62
2019-03-06T01:32:00.277Z,1006.64
2019-03-06T01:33:00.315Z,1006.68
2019-03-06T01:34:00.338Z,1006.69
2019-03-06T01:35:00.365Z,1006.70
2019-03-06T01:36:00.392Z,1006.69
2019-03-06T01:37:00.420Z,1006.77
2019-03-06T01:38:00.449Z,1006.70
2019-03-06T01:39:00.481Z,1006.70
2019-03-06T01:40:00.506Z,1006.66
2019-03-06T01:41:00.534Z,1006.65
2019-03-06T01:42:00.563Z,1006.55
2019-03-06T01:43:00.592Z,1006.60
2019-03-06T01:44:00.620Z,1006.59
2019-03-06T01:45:00.649Z,1006.64
2019-03-06T01:46:00.675Z,1006.62
2019-03-06T01:47:00.705Z,1006.69
2019-03-06T01:48:00.735Z,1006.67
2019-03-06T01:49:00.760Z,1006.67
2019-03-06T01:50:00.788Z,1006.64
2019-03-06T01:51:00.817Z,1006.70
2019-03-06T01:52:00.846Z,1006.65
2019-03-06T01:53:00.880Z,1006.66
2019-03-06T01:54:00.905Z,1006.69
2019-03-06T01:55:00.930Z,1006.71
2019-03-06T01:56:00.959Z,1006.69
2019-03-06T01:57:00.985Z,1006.70
2019-03-06T01:58:01.015Z,1006.70
2019-03-06T01:59:01.042Z,1006.73
2019-03-06T02:00:01.070Z,1006.75
2019-03-06T02:01:01.100Z,1006.76
2019-03-06T02:02:01.129Z,1006.78
2019-03-06T02:03:01.158Z,1006.77
2019-03-06T02:04:01.183Z,1006.78
2019-03-06T02:05:01.213Z,1006.79
2019-03-06T02:06:01.241Z,1006.77
2019-03-06T02:07:01.275Z,1006.81
2019-03-06T02:08:01.297Z,1006.83
2019-03-06T02:09:01.325Z,1006.84
2019-03-06T02:10:01.352Z,1006.82
2019-03-06T02:11:01.380Z,1006.77
2019-03-06T02:12:01.409Z,1006.81
2019-03-06T02:13:01.436Z,1006.77
2019-03-06T02:14:01.469Z,1006.77
2019-03-06T02:15:01.495Z,1006.75
2019-03-06T02:16:01.521Z,1006.74
2019-03-06T02:17:01.548Z,1006.71
2019-03-06T02:18:01.596Z,1006.69
2019-03-06T02:19:01.606Z,1006.70
2019-03-06T02:20:01.634Z,1006.66
2019-03-06T02:21:01.713Z,1006.69
2019-03-06T02:22:01.690Z,1006.66
2019-03-06T02:23:01.719Z,1006.71
2019-03-06T02:24:01.745Z,1006.72
2019-03-06T02:25:01.775Z,1006.68
2019-03-06T02:26:01.800Z,1006.74
2019-03-06T02:27:01.830Z,1006.75
2019-03-06T02:28:01.857Z,1006.78
2019-03-06T02:29:01.884Z,1006.75
2019-03-06T02:30:01.915Z,1006.76
2019-03-06T02:31:01.941Z,1006.78
2019-03-06T02:32:01.969Z,1006.77
2019-03-06T02:33:01.996Z,1006.80
2019-03-06T02:34:02.026Z,1006.83
2019-03-06T02:35:02.134Z,1006.80
2019-03-06T02:36:02.080Z,1006.81
2019-03-06T02:37:02.109Z,1006.82
2019-03-06T02:38:02.137Z,1006.80
2019-03-06T02:39:02.168Z,1006.85
2019-03-06T02:40:02.198Z,1006.83
2019-03-06T02:41:02.224Z,1006.86
2019-03-06T02:42:02.249Z,1006.88
2019-03-06T02:43:02.277Z,1006.90
2019-03-06T02:44:02.306Z,1006.85
2019-03-06T02:45:02.333Z,1006.85
2019-03-06T02:46:02.360Z,1006.88
2019-03-06T02:47:02.431Z,1006.88
2019-03-06T02:48:02.420Z,1006.85
2019-03-06T02:49:02.478Z,1006.84
2019-03-06T02:50:02.472Z,1006.82
2019-03-06T02:51:02.501Z,1006.81
2019-03-06T02:52:02.531Z,1006.82
2019-03-06T02:53:02.556Z,1006.83
2019-03-06T02:54:02.598Z,1006.85
2019-03-06T02:55:02.612Z,1006.88
2019-03-06T02:56:02.637Z,1006.89
2019-03-06T02:57:02.668Z,1006.88
2019-03-06T02:58:02.695Z,1006.90
2019-03-06T02:59:02.730Z,1006.91
2019-03-06T03:00:02.775Z,1006.93
2019-03-06T03:01:02.798Z,1006.89
2019-03-06T03:02:02.811Z,1006.87
2019-03-06T03:03:02.838Z,1006.85
2019-03-06T03:04:02.861Z,1006.83
2019-03-06T03:05:02.891Z,1006.85
2019-03-06T03:06:02.920Z,1006.84
2019-03-06T03:07:02.951Z,1006.84
2019-03-06T03:08:02.974Z,1006.86
2019-03-06T03:09:03.013Z,1006.85
2019-03-06T03:10:03.029Z,1006.88
2019-03-06T03:11:03.067Z,1006.90
2019-03-06T03:12:03.088Z,1006.92
2019-03-06T03:13:03.110Z,1006.94
2019-03-06T03:14:03.142Z,1006.92
2019-03-06T03:15:03.173Z,1006.95
2019-03-06T03:16:03.195Z,1006.92
2019-03-06T03:17:03.223Z,1006.95
2019-03-06T03:18:03.256Z,1006.91
2019-03-06T03:19:03.284Z,1006.93
2019-03-06T03:20:03.306Z,1006.93
2019-03-06T03:21:03.335Z,1006.90
2019-03-06T03:22:03.364Z,1006.93
2019-03-06T03:23:03.391Z,1006.94
2019-03-06T03:24:03.418Z,1006.94
2019-03-06T03:25:03.447Z,1006.93
2019-03-06T03:26:03.474Z,1006.87
2019-03-06T03:27:03.501Z,1006.88
2019-03-06T03:28:03.529Z,1006.90
2019-03-06T03:29:03.563Z,1006.90
2019-03-06T03:30:03.584Z,1006.90
2019-03-06T03:31:03.614Z,1006.92
2019-03-06T03:32:03.683Z,1006.90
2019-03-06T03:33:03.669Z,1006.92
2019-03-06T03:34:03.699Z,1006.95
2019-03-06T03:35:03.731Z,1006.92
2019-03-06T03:36:03.751Z,1006.91
2019-03-06T03:37:03.779Z,1006.92
2019-03-06T03:38:03.809Z,1006.91
2019-03-06T03:39:03.838Z,1006.97
2019-03-06T03:40:03.864Z,1006.93
2019-03-06T03:41:03.898Z,1006.99
2019-03-06T03:42:03.918Z,1006.97
2019-03-06T03:43:03.947Z,1006.98
2019-03-06T03:44:03.974Z,1006.99
2019-03-06T03:45:04.001Z,1006.94
2019-03-06T03:46:04.034Z,1006.96
2019-03-06T03:47:04.058Z,1006.97
2019-03-06T03:48:04.084Z,1006.95
2019-03-06T03:49:04.111Z,1006.95
2019-03-06T03:50:04.138Z,1006.96
2019-03-06T03:51:04.169Z,1006.97
2019-03-06T03:52:04.193Z,1006.98
2019-03-06T03:53:04.289Z,1006.97
2019-03-06T03:54:04.251Z,1006.96
2019-03-06T03:55:04.278Z,1006.98
2019-03-06T03:56:04.304Z,1006.97
2019-03-06T03:57:04.335Z,1006.96
2019-03-06T03:58:04.374Z,1006.93
2019-03-06T03:59:04.390Z,1006.95
2019-03-06T04:00:04.419Z,1006.97
2019-03-06T04:01:04.447Z,1006.99
2019-03-06T04:02:04.473Z,1007.00
2019-03-06T04:03:04.500Z,1007.00
2019-03-06T04:04:04.528Z,1006.97
2019-03-06T04:05:04.558Z,1006.96
2019-03-06T04:06:04.591Z,1006.95
2019-03-06T04:07:04.612Z,1006.99
2019-03-06T04:08:04.638Z,1006.92
2019-03-06T04:09:04.669Z,1006.96
2019-03-06T04:10:04.694Z,1006.92
2019-03-06T04:11:04.721Z,1006.94
2019-03-06T04:12:04.751Z,1006.95
2019-03-06T04:13:04.780Z,1006.92
2019-03-06T04:14:04.810Z,1006.96
2019-03-06T04:15:04.833Z,1006.99
2019-03-06T04:16:04.861Z,1006.95
2019-03-06T04:17:04.885Z,1007.01
2019-03-06T04:18:04.924Z,1007.02
2019-03-06T04:19:04.943Z,1007.02
2019-03-06T04:20:04.983Z,1007.06
2019-03-06T04:21:05.001Z,1007.02
2019-03-06T04:22:05.024Z,1007.06
2019-03-06T04:23:05.052Z,1007.00
2019-03-06T04:24:05.079Z,1007.02
2019-03-06T04:25:05.117Z,1007.00
2019-03-06T04:26:05.134Z,1007.02
2019-03-06T04:27:05.162Z,1007.00
2019-03-06T04:28:05.193Z,1007.03
2019-03-06T04:29:05.217Z,1007.01
2019-03-06T04:30:05.244Z,1007.00
2019-03-06T04:31:05.272Z,1007.02
2019-03-06T04:32:05.303Z,1007.01
2019-03-06T04:33:05.327Z,1007.04
2019-03-06T04:34:05.355Z,1007.05
2019-03-06T04:35:05.382Z,1007.06
2019-03-06T04:36:05.409Z,1007.03
2019-03-06T04:37:05.437Z,1007.05
2019-03-06T04:38:05.464Z,1007.05
2019-03-06T04:39:05.492Z,1007.03
2019-03-06T04:40:05.519Z,1007.06
2019-03-06T04:41:05.546Z,1007.05
2019-03-06T04:42:05.574Z,1007.02
2019-03-06T04:43:05.601Z,1007.04
2019-03-06T04:44:05.650Z,1007.06
2019-03-06T04:45:05.656Z,1007.02
2019-03-06T04:46:05.683Z,1007.04
2019-03-06T04:47:05.711Z,1007.03
2019-03-06T04:48:05.738Z,1006.99
2019-03-06T04:49:05.767Z,1007.00
2019-03-06T04:50:05.794Z,1007.05
2019-03-06T04:51:05.821Z,1007.05
2019-03-06T04:52:05.848Z,1007.06
2019-03-06T04:53:05.876Z,1007.11
2019-03-06T04:54:05.903Z,1007.14
2019-03-06T04:55:05.935Z,1007.07
2019-03-06T04:56:05.958Z,1007.06
2019-03-06T04:57:05.988Z,1007.05
2019-03-06T04:58:06.013Z,1007.05
2019-03-06T04:59:06.042Z,1007.03
2019-03-06T05:00:06.068Z,1007.05
2019-03-06T05:01:06.105Z,1007.07
2019-03-06T05:02:06.123Z,1007.04
2019-03-06T05:03:06.151Z,1007.03
2019-03-06T05:04:06.177Z,1007.04
2019-03-06T05:05:06.205Z,1007.05
2019-03-06T05:06:06.233Z,1007.02
2019-03-06T05:07:06.260Z,1007.04
2019-03-06T05:08:06.290Z,1007.01
2019-03-06T05:09:06.315Z,1006.96
2019-03-06T05:10:06.343Z,1006.99
2019-03-06T05:11:06.373Z,1006.97
2019-03-06T05:12:06.401Z,1006.99
2019-03-06T05:13:06.423Z,1006.93
2019-03-06T05:14:06.452Z,1006.95
2019-03-06T05:15:06.481Z,1006.91
2019-03-06T05:16:06.506Z,1006.88
2019-03-06T05:17:06.532Z,1006.91
2019-03-06T05:18:06.560Z,1006.91
2019-03-06T05:19:06.614Z,1006.92
2019-03-06T05:20:06.615Z,1006.94
2019-03-06T05:21:06.643Z,1006.96
2019-03-06T05:22:06.672Z,1006.93
2019-03-06T05:23:06.704Z,1007.00
2019-03-06T05:24:06.724Z,1006.99
2019-03-06T05:25:06.752Z,1007.02
2019-03-06T05:26:06.783Z,1007.02
2019-03-06T05:27:06.819Z,1007.05
2019-03-06T05:28:06.834Z,1007.05
2019-03-06T05:29:06.863Z,1007.04
2019-03-06T05:30:06.891Z,1007.09
2019-03-06T05:31:06.917Z,1007.08
2019-03-06T05:32:06.943Z,1007.06
2019-03-06T05:33:06.975Z,1007.11
2019-03-06T05:34:07.001Z,1007.08
2019-03-06T05:35:07.029Z,1007.08
2019-03-06T05:36:07.066Z,1007.09
2019-03-06T05:37:07.083Z,1007.05
2019-03-06T05:38:07.113Z,1006.99
2019-03-06T05:39:07.140Z,1007.04
2019-03-06T05:40:07.165Z,1007.02
2019-03-06T05:41:07.196Z,1007.01
2019-03-06T05:42:07.218Z,1007.01
2019-03-06T05:43:07.252Z,1007.02
2019-03-06T05:44:07.336Z,1007.00
2019-03-06T05:45:07.303Z,1007.00
2019-03-06T05:46:07.332Z,1006.97
2019-03-06T05:47:07.357Z,1006.99
2019-03-06T05:48:07.384Z,1007.00
2019-03-06T05:49:07.412Z,1007.03
2019-03-06T05:50:07.438Z,1007.05
2019-03-06T05:51:07.471Z,1007.03
2019-03-06T05:52:07.493Z,1007.06
2019-03-06T05:53:07.521Z,1007.06
2019-03-06T05:54:07.547Z,1007.06
2019-03-06T05:55:07.577Z,1007.08
2019-03-06T05:56:07.602Z,1007.05
2019-03-06T05:57:07.630Z,1007.15
2019-03-06T05:58:07.658Z,1007.13
2019-03-06T05:59:07.686Z,1007.15
2019-03-06T06:00:07.712Z,1007.14
2019-03-06T06:01:07.740Z,1007.15
2019-03-06T06:02:07.766Z,1007.21
2019-03-06T06:03:07.797Z,1007.18
2019-03-06T06:04:07.823Z,1007.19
2019-03-06T06:05:07.849Z,1007.22
2019-03-06T06:06:07.878Z,1007.23
2019-03-06T06:07:07.905Z,1007.18
2019-03-06T06:08:07.931Z,1007.19
2019-03-06T06:09:07.959Z,1007.21
2019-03-06T06:10:07.986Z,1007.17
2019-03-06T06:11:08.015Z,1007.14
2019-03-06T06:12:08.040Z,1007.19
2019-03-06T06:13:08.070Z,1007.18
2019-03-06T06:14:08.097Z,1007.15
2019-03-06T06:15:08.125Z,1007.14
2019-03-06T06:16:08.150Z,1007.18
2019-03-06T06:17:08.178Z,1007.16
2019-03-06T06:18:08.206Z,1007.16
2019-03-06T06:19:08.236Z,1007.16
2019-03-06T06:20:08.261Z,1007.10
2019-03-06T06:21:08.287Z,1007.13
2019-03-06T06:22:08.315Z,1007.07
2019-03-06T06:23:08.342Z,1007.10
2019-03-06T06:24:08.373Z,1007.13
2019-03-06T06:25:08.399Z,1007.09
2019-03-06T06:26:08.424Z,1007.10
2019-03-06T06:27:08.454Z,1007.10
2019-03-06T06:28:08.480Z,1007.08
2019-03-06T06:29:08.510Z,1007.09
2019-03-06T06:30:08.535Z,1007.06
2019-03-06T06:31:08.562Z,1007.07
2019-03-06T06:32:08.590Z,1007.06
2019-03-06T06:33:08.620Z,1007.02
2019-03-06T06:34:08.646Z,1007.03
2019-03-06T06:35:08.671Z,1007.07
2019-03-06T06:36:08.699Z,1007.04
2019-03-06T06:37:08.727Z,1007.08
2019-03-06T06:38:08.756Z,1007.05
2019-03-06T06:39:08.783Z,1007.11
2019-03-06T06:40:08.808Z,1007.10
2019-03-06T06:41:08.888Z,1007.10
2019-03-06T06:42:08.864Z,1007.12
2019-03-06T06:43:08.891Z,1007.13
2019-03-06T06:44:08.919Z,1007.11
2019-03-06T06:45:08.947Z,1007.12
2019-03-06T06:46:08.975Z,1007.17
2019-03-06T06:47:09.001Z,1007.17
2019-03-06T06:48:09.031Z,1007.18
2019-03-06T06:49:09.062Z,1007.20
2019-03-06T06:50:09.184Z,1007.15
2019-03-06T06:51:09.112Z,1007.14
2019-03-06T06:52:09.152Z,1007.15
2019-03-06T06:53:09.166Z,1007.17
2019-03-06T06:54:09.194Z,1007.12
2019-03-06T06:55:09.221Z,1007.14
2019-03-06T06:56:09.253Z,1007.08
2019-03-06T06:57:09.276Z,1007.07
2019-03-06T06:58:09.305Z,1007.06
2019-03-06T06:59:09.336Z,1007.06
2019-03-06T07:00:09.358Z,1007.06
2019-03-06T07:01:09.385Z,1007.03
2019-03-06T07:02:09.416Z,1007.00
2019-03-06T07:03:09.441Z,1007.04
2019-03-06T07:04:09.468Z,1007.03
2019-03-06T07:05:09.495Z,1007.02
2019-03-06T07:06:09.523Z,1007.01
2019-03-06T07:07:09.552Z,1006.97
2019-03-06T07:08:09.578Z,1007.02
2019-03-06T07:09:09.609Z,1006.96
2019-03-06T07:10:09.647Z,1006.95
2019-03-06T07:11:09.661Z,1006.98
2019-03-06T07:12:09.687Z,1006.98
2019-03-06T07:13:09.719Z,1006.97
2019-03-06T07:14:09.771Z,1007.04
2019-03-06T07:15:09.770Z,1007.05
2019-03-06T07:16:09.797Z,1007.05
2019-03-06T07:17:09.827Z,1007.09
2019-03-06T07:18:09.853Z,1007.03
2019-03-06T07:19:09.881Z,1007.05
2019-03-06T07:20:09.907Z,1007.07
2019-03-06T07:21:09.934Z,1007.07
2019-03-06T07:22:09.964Z,1007.11
2019-03-06T07:23:09.991Z,1007.07
2019-03-06T07:24:10.023Z,1007.04
2019-03-06T07:25:10.110Z,1007.05
2019-03-06T07:26:10.072Z,1007.05
2019-03-06T07:27:10.102Z,1007.04
2019-03-06T07:28:10.127Z,1007.04
2019-03-06T07:29:10.170Z,1007.03
2019-03-06T07:30:10.183Z,1007.03
2019-03-06T07:31:10.210Z,1006.96
2019-03-06T07:32:10.237Z,1006.99
2019-03-06T07:33:10.266Z,1006.94
2019-03-06T07:34:10.299Z,1007.02
2019-03-06T07:35:10.321Z,1006.97
2019-03-06T07:36:10.350Z,1007.00
2019-03-06T07:37:10.376Z,1007.01
2019-03-06T07:38:10.405Z,1007.02
2019-03-06T07:39:10.438Z,1007.00
2019-03-06T07:40:10.459Z,1006.97
2019-03-06T07:41:10.487Z,1006.98
2019-03-06T07:42:10.516Z,1007.00
2019-03-06T07:43:10.544Z,1006.99
2019-03-06T07:44:10.569Z,1006.97
2019-03-06T07:45:10.597Z,1006.97
2019-03-06T07:46:10.624Z,1006.97
2019-03-06T07:47:10.653Z,1007.00
2019-03-06T07:48:10.682Z,1006.99
2019-03-06T07:49:10.711Z,1007.05
2019-03-06T07:50:10.736Z,1007.09
2019-03-06T07:51:10.765Z,1007.10
2019-03-06T07:52:10.800Z,1007.16
2019-03-06T07:53:10.821Z,1007.12
2019-03-06T07:54:10.848Z,1007.16
2019-03-06T07:55:10.876Z,1007.14
2019-03-06T07:56:10.902Z,1007.15
2019-03-06T07:57:10.933Z,1007.11
2019-03-06T07:58:10.958Z,1007.12
2019-03-06T07:59:10.985Z,1007.19
2019-03-06T08:00:11.014Z,1007.09
2019-03-06T08:01:16.973Z,1007.13
2019-03-06T08:02:11.080Z,1007.08
2019-03-06T08:03:11.098Z,1007.12
2019-03-06T08:04:11.124Z,1007.07
2019-03-06T08:05:11.153Z,1007.07
2019-03-06T08:06:11.181Z,1007.04
2019-03-06T08:07:18.810Z,1007.11
2019-03-06T08:08:25.857Z,1007.08
2019-03-06T08:10:53.183Z,1007.10
2019-03-06T08:11:53.192Z,1007.06
2019-03-06T08:15:26.958Z,1007.03
2019-03-06T08:16:26.964Z,1007.13
2019-03-06T08:18:30.987Z,1007.15
2019-03-06T08:19:31.011Z,1007.06
2019-03-06T08:21:33.265Z,1007.05
2019-03-06T08:22:33.271Z,1007.00
2019-03-06T08:24:37.292Z,1006.98
2019-03-06T08:25:37.315Z,1006.99
2019-03-06T08:27:40.367Z,1007.03
2019-03-06T08:28:40.372Z,1007.01
2019-03-06T08:30:43.526Z,1007.07
2019-03-06T08:31:43.551Z,1006.99
2019-03-06T08:33:36.511Z,1006.97
2019-03-06T08:34:36.521Z,1007.01
2019-03-06T08:36:39.592Z,1006.93
2019-03-06T08:37:39.614Z,1006.99
2019-03-06T08:39:42.786Z,1006.87
2019-03-06T08:40:42.794Z,1006.91
2019-03-06T08:42:45.983Z,1006.90
2019-03-06T08:43:46.012Z,1006.97
2019-03-06T08:45:49.242Z,1006.90
2019-03-06T08:46:49.248Z,1006.84
2019-03-06T08:48:52.322Z,1006.80
2019-03-06T08:49:52.345Z,1006.83
2019-03-06T08:51:56.399Z,1006.86
2019-03-06T08:52:56.397Z,1006.85
2019-03-06T08:55:00.422Z,1006.82
2019-03-06T08:56:00.445Z,1006.83
2019-03-06T08:58:04.494Z,1006.74
2019-03-06T08:59:04.492Z,1006.76
2019-03-06T09:01:08.518Z,1006.78
2019-03-06T09:02:15.283Z,1006.78
2019-03-06T09:04:11.665Z,1006.71
2019-03-06T09:05:11.655Z,1006.74
2019-03-06T09:07:15.702Z,1006.61
2019-03-06T09:08:15.726Z,1006.64
2019-03-06T09:10:18.877Z,1006.71
2019-03-06T09:11:18.882Z,1006.81
2019-03-06T09:13:10.842Z,1006.83
2019-03-06T09:14:10.871Z,1006.84
2019-03-06T09:16:14.926Z,1006.67
2019-03-06T09:17:14.935Z,1006.67
2019-03-06T09:19:18.965Z,1006.60
2019-03-06T09:20:18.991Z,1006.71
2019-03-06T09:22:23.040Z,1006.80
2019-03-06T09:23:23.690Z,1006.68
2019-03-06T09:25:27.072Z,1006.54
2019-03-06T09:26:27.101Z,1006.41
2019-03-06T09:28:30.198Z,1006.34
2019-03-06T09:29:30.205Z,1006.34
2019-03-06T09:31:33.250Z,1006.30
2019-03-06T09:32:33.280Z,1006.27
2019-03-06T09:34:37.320Z,1006.24
2019-03-06T09:35:37.329Z,1006.26
2019-03-06T09:37:41.362Z,1006.18
2019-03-06T09:38:41.389Z,1006.18
2019-03-06T09:40:45.445Z,1006.10
2019-03-06T09:41:45.452Z,1006.07
2019-03-06T09:43:38.403Z,1006.10
2019-03-06T09:44:38.428Z,1006.18
2019-03-06T09:46:41.470Z,1006.12
2019-03-06T09:47:41.478Z,1006.08
2019-03-06T09:49:45.508Z,1006.04
2019-03-06T09:50:45.533Z,1006.01
2019-03-06T09:52:49.584Z,1006.07
2019-03-06T09:53:49.590Z,1006.05
2019-03-06T09:55:42.738Z,1006.10
2019-03-06T09:56:42.766Z,1006.04
2019-03-06T09:58:46.816Z,1005.94
2019-03-06T09:59:46.825Z,1005.97
2019-03-06T10:01:50.887Z,1005.95
2019-03-06T10:02:50.893Z,1005.87
2019-03-06T10:04:54.935Z,1005.94
2019-03-06T10:05:54.937Z,1005.94
2019-03-06T10:07:58.971Z,1005.89
2019-03-06T10:08:58.997Z,1005.89
2019-03-06T10:11:03.049Z,1005.89
2019-03-06T10:12:03.051Z,1005.81
2019-03-06T10:14:07.096Z,1005.82
2019-03-06T10:15:07.118Z,1005.83
2019-03-06T10:17:11.171Z,1005.83
2019-03-06T10:18:11.179Z,1005.73
2019-03-06T10:20:24.656Z,1005.75
2019-03-06T10:21:15.734Z,1005.76
2019-03-06T10:23:08.705Z,1005.82
2019-03-06T10:24:08.718Z,1005.92
2019-03-06T10:26:12.757Z,1005.91
2019-03-06T10:27:12.783Z,1005.80
2019-03-06T10:29:16.840Z,1005.86
2019-03-06T10:30:18.660Z,1005.84
2019-03-06T10:32:20.909Z,1005.80
2019-03-06T10:33:20.944Z,1005.89
2019-03-06T10:35:25.023Z,1005.84
2019-03-06T10:36:25.018Z,1005.73
2019-03-06T10:38:29.061Z,1005.73
2019-03-06T10:39:29.093Z,1005.69
2019-03-06T10:41:33.153Z,1005.84
2019-03-06T10:42:33.170Z,1005.78
2019-03-06T10:44:37.212Z,1005.88
2019-03-06T10:45:41.870Z,1005.83
2019-03-06T10:47:41.309Z,1005.91
2019-03-06T10:48:41.326Z,1005.85
2019-03-06T10:50:45.369Z,1005.86
2019-03-06T10:51:45.403Z,1005.84
2019-03-06T10:53:41.290Z,1005.82
2019-03-06T10:54:44.700Z,1005.84
2019-03-06T10:56:42.452Z,1005.76
2019-03-06T10:57:42.485Z,1005.75
2019-03-06T11:02:50.630Z,1005.52
2019-03-06T11:03:50.648Z,1005.63
2019-03-06T11:05:54.715Z,1005.45
2019-03-06T11:06:54.726Z,1005.46
2019-03-06T11:09:04.175Z,1005.53
2019-03-06T11:09:58.811Z,1005.38
2019-03-06T11:12:02.874Z,1005.34
2019-03-06T11:13:02.905Z,1005.38
2019-03-06T11:15:06.963Z,1005.31
2019-03-06T11:16:06.978Z,1005.26
2019-03-06T11:18:11.022Z,1005.25
2019-03-06T11:19:11.056Z,1005.24
2019-03-06T11:21:15.116Z,1005.21
2019-03-06T11:22:15.132Z,1005.16
2019-03-06T11:24:19.194Z,1005.07
2019-03-06T11:25:19.212Z,1005.10
2019-03-06T11:27:23.249Z,1005.01
2019-03-06T11:28:23.281Z,1004.95
2019-03-06T11:30:23.946Z,1004.88
2019-03-06T11:31:15.959Z,1004.92
2019-03-06T11:33:17.986Z,1004.97
2019-03-06T11:34:18.016Z,1004.86
2019-03-06T11:36:20.057Z,1004.93
2019-03-06T11:37:20.089Z,1004.85
2019-03-06T11:39:22.134Z,1004.80
2019-03-06T11:40:22.147Z,1004.94
2019-03-06T11:42:24.190Z,1004.77
2019-03-06T11:43:24.204Z,1004.83
2019-03-06T11:45:26.242Z,1004.85
2019-03-06T11:46:26.258Z,1004.93
2019-03-06T11:48:28.284Z,1004.97
2019-03-06T11:49:28.310Z,1004.77
2019-03-06T11:51:30.697Z,1004.77
2019-03-06T11:52:34.861Z,1004.79
2019-03-06T11:54:32.872Z,1004.87
2019-03-06T11:55:32.905Z,1004.82
2019-03-06T11:57:35.960Z,1004.69
2019-03-06T11:58:35.993Z,1004.61
2019-03-06T12:00:27.996Z,1004.70
2019-03-06T12:01:28.027Z,1004.58
2019-03-06T12:03:30.265Z,1004.48
2019-03-06T12:04:30.294Z,1004.43
2019-03-06T12:06:32.437Z,1004.45
2019-03-06T12:07:32.469Z,1004.36
2019-03-06T12:09:34.609Z,1004.40
2019-03-06T12:10:34.643Z,1004.47
2019-03-06T12:12:36.884Z,1004.46
2019-03-06T12:13:36.915Z,1004.42
2019-03-06T12:15:39.051Z,1004.42
2019-03-06T12:16:41.735Z,1004.47
2019-03-06T12:18:41.327Z,1004.47
2019-03-06T12:19:41.355Z,1004.42
2019-03-06T12:21:44.534Z,1004.31
2019-03-06T12:22:44.552Z,1004.37
2019-03-06T12:24:46.691Z,1004.35
2019-03-06T12:25:46.721Z,1004.32
2019-03-06T12:27:49.806Z,1004.22
2019-03-06T12:28:49.839Z,1004.21
2019-03-06T12:30:53.885Z,1004.08
2019-03-06T12:31:53.918Z,1004.04
2019-03-06T12:33:57.978Z,1004.09
2019-03-06T12:34:58.029Z,1003.98
2019-03-06T12:37:02.090Z,1004.02
2019-03-06T12:38:02.064Z,1003.94
2019-03-06T12:39:55.032Z,1003.96
2019-03-06T12:40:55.057Z,1003.84
2019-03-06T12:42:59.215Z,1003.88
2019-03-06T12:43:59.132Z,1003.78
2019-03-06T12:46:03.171Z,1003.93
2019-03-06T12:47:03.205Z,1003.84
2019-03-06T12:49:07.296Z,1003.73
2019-03-06T12:50:07.276Z,1003.62
2019-03-06T12:52:11.317Z,1003.52
2019-03-06T12:53:12.879Z,1003.55
2019-03-06T12:55:14.539Z,1003.68
2019-03-06T12:56:14.571Z,1003.58
2019-03-06T12:58:17.755Z,1003.55
2019-03-06T12:59:17.791Z,1003.50
2019-03-06T13:01:20.109Z,1003.69
2019-03-06T13:02:20.137Z,1003.33
2019-03-06T13:04:23.219Z,1003.46
2019-03-06T13:05:23.233Z,1003.32
2019-03-06T13:07:25.477Z,1003.24
2019-03-06T13:08:25.507Z,1003.27
2019-03-06T13:10:17.509Z,1003.31
2019-03-06T13:11:17.542Z,1003.26
2019-03-06T13:13:19.787Z,1003.23
2019-03-06T13:14:19.826Z,1003.08
2019-03-06T13:16:22.905Z,1003.17
2019-03-06T13:17:22.936Z,1003.20
2019-03-06T13:19:25.068Z,1003.24
2019-03-06T13:20:25.074Z,1003.21
2019-03-06T13:22:27.314Z,1003.12
2019-03-06T13:23:27.348Z,1003.13
2019-03-06T13:25:29.485Z,1003.00
2019-03-06T13:26:29.518Z,1003.05
2019-03-06T13:28:31.762Z,1003.07
2019-03-06T13:29:31.792Z,1003.05
2019-03-06T13:31:33.929Z,1002.97
2019-03-06T13:32:33.963Z,1002.89
2019-03-06T13:34:36.243Z,1002.88
2019-03-06T13:35:36.238Z,1002.99
2019-03-06T13:37:38.267Z,1002.80
2019-03-06T13:38:38.301Z,1002.78
2019-03-06T13:40:31.261Z,1002.60
2019-03-06T13:41:31.297Z,1002.65
2019-03-06T13:43:35.340Z,1002.50
2019-03-06T13:44:35.375Z,1002.36
2019-03-06T13:46:37.401Z,1002.23
2019-03-06T13:47:37.436Z,1002.31
2019-03-06T13:49:39.464Z,1002.39
2019-03-06T13:50:39.496Z,1002.26
2019-03-06T13:52:41.521Z,1002.17
2019-03-06T13:53:41.555Z,1002.14
2019-03-06T13:55:43.581Z,1002.08
2019-03-06T13:56:43.617Z,1002.06
2019-03-06T13:58:45.640Z,1002.09
2019-03-06T13:59:45.673Z,1002.14
2019-03-06T14:01:47.697Z,1002.06
2019-03-06T14:02:47.729Z,1001.95
2019-03-06T14:04:50.292Z,1001.93
2019-03-06T14:05:50.274Z,1002.10
2019-03-06T14:06:50.312Z,1001.83
2019-03-06T14:07:56.292Z,1001.89
2019-03-06T14:08:50.384Z,1001.85
2019-03-06T14:09:50.422Z,1001.74
2019-03-06T14:10:50.458Z,1001.78
2019-03-06T14:11:50.493Z,1001.74